Time;durP1;ratioP1;P1;durP2;ratioP2;P2;SDS_P1;SDS_P2;PMS_P1;PMS_P2;Temp;Humidity;BMP_temperature;BMP_pressure;BME280_temperature;BME280_humidity;BME280_pressure;Samples;Min_cycle;Max_cycle;Signal;HPM_P1;HPM_P2
2023/06/08 00:00:05;;;;;;;;;;;;;;;;;;140986;1244;23078;-78
2023/06/08 00:03:06;;;;;;;;;;;;;;;;;;141180;1244;22968;-79
2023/06/08 00:06:07;;;;;;;;;;;;;;;;;;141021;1244;22465;-78
2023/06/08 00:09:09;;;;;;;;;;;;;;;;;;141068;1244;22488;-79
2023/06/08 00:12:11;;;;;;;;;;;;;;;;;;141208;1244;22485;-80
2023/06/08 00:15:13;;;;;;;;;;;;;;;;;;141098;1244;22959;-78
2023/06/08 00:18:15;;;;;;;;;;;;;;;;;;140837;1244;22475;-77
2023/06/08 00:21:16;;;;;;;;;;;;;;;;;;140940;1244;22574;-78
2023/06/08 00:24:19;;;;;;;;;;;;;;;;;;141218;1244;22952;-77
2023/06/08 00:27:20;;;;;;;;;;;;;;;;;;140972;1244;22490;-78
2023/06/08 00:30:21;;;;;;;;;;;;;;;;;;141027;1244;22523;-78
2023/06/08 00:33:22;;;;;;;;;;;;;;;;;;141335;1244;22318;-76
2023/06/08 00:36:23;;;;;;;;;;;;;;;;;;141027;1244;22984;-77
2023/06/08 00:39:24;;;;;;;;;;;;;;;;;;141301;1244;22491;-77
2023/06/08 00:42:25;;;;;;;;;;;;;;;;;;141288;1244;22331;-77
2023/06/08 00:45:26;;;;;;;;;;;;;;;;;;140987;1244;23164;-77
2023/06/08 00:48:27;;;;;;;;;;;;;;;;;;140958;1244;22970;-78
2023/06/08 00:51:28;;;;;;;;;;;;;;;;;;140985;1244;22526;-78
2023/06/08 00:54:30;;;;;;;;;;;;;;;;;;141270;1244;22487;-77
2023/06/08 00:57:32;;;;;;;;;;;;;;;;;;141048;1244;23044;-77
2023/06/08 01:00:34;;;;;;;;;;;;;;;;;;141024;1244;22538;-75
2023/06/08 01:03:35;;;;;;;;;;;;;;;;;;141220;1244;22922;-76
2023/06/08 01:06:36;;;;;;;;;;;;;;;;;;140946;1244;22499;-77
2023/06/08 01:09:37;;;;;;;;;;;;;;;;;;141015;1240;22486;-78
2023/06/08 01:12:38;;;;;;;;;;;;;;;;;;141409;1244;22250;-78
2023/06/08 01:15:40;;;;;;;;;;;;;;;;;;141072;1244;22507;-78
2023/06/08 01:18:41;;;;;;;;;;;;;;;;;;141096;1244;22490;-79
2023/06/08 01:21:42;;;;;;;;;;;;;;;;;;141169;1244;22531;-80
2023/06/08 01:24:50;;;;;;;;;;;;;;;;;;141199;1244;22478;-79
2023/06/08 01:27:51;;;;;;;;;;;;;;;;;;140996;1244;22516;-79
2023/06/08 01:30:53;;;;;;;;;;;;;;;;;;140966;1244;22612;-77
2023/06/08 01:33:54;;;;;;;;;;;;;;;;;;141179;1244;22587;-78
2023/06/08 01:36:56;;;;;;;;;;;;;;;;;;141120;1244;23218;-78
2023/06/08 01:39:57;;;;;;;;;;;;;;;;;;141472;1244;22380;-78
2023/06/08 01:42:58;;;;;;;;;;;;;;;;;;141307;1244;22532;-77
2023/06/08 01:45:59;;;;;;;;;;;;;;;;;;141011;1244;22480;-76
2023/06/08 01:49:00;;;;;;;;;;;;;;;;;;141026;1244;22517;-76
2023/06/08 01:52:02;;;;;;;;;;;;;;;;;;141195;1244;22518;-78
2023/06/08 01:55:03;;;;;;;;;;;;;;;;;;141052;1244;22827;-76
2023/06/08 01:58:04;;;;;;;;;;;;;;;;;;140946;1244;22501;-77
2023/06/08 02:01:05;;;;;;;;;;;;;;;;;;140950;1244;22503;-77
2023/06/08 02:04:06;;;;;;;;;;;;;;;;;;141270;1244;22487;-77
2023/06/08 02:07:07;;;;;;;;;;;;;;;;;;141237;1244;24132;-77
2023/06/08 02:10:08;;;;;;;;;;;;;;;;;;141253;1244;22499;-77
2023/06/08 02:13:09;;;;;;;;;;;;;;;;;;141289;1244;22349;-77
2023/06/08 02:16:10;;;;;;;;;;;;;;;;;;141054;1244;22506;-77
2023/06/08 02:19:14;;;;;;;;;;;;;;;;;;140964;1244;22478;-77
2023/06/08 02:22:15;;;;;;;;;;;;;;;;;;141370;1244;22284;-77
2023/06/08 02:25:16;;;;;;;;;;;;;;;;;;141313;1244;22253;-77
2023/06/08 02:28:17;;;;;;;;;;;;;;;;;;141325;1244;22326;-78
2023/06/08 02:31:19;;;;;;;;;;;;;;;;;;141254;1244;22512;-78
2023/06/08 02:34:20;;;;;;;;;;;;;;;;;;141254;1244;22551;-77
2023/06/08 02:37:21;;;;;;;;;;;;;;;;;;141098;1244;22608;-78
2023/06/08 02:40:23;;;;;;;;;;;;;;;;;;140961;1244;22604;-78
2023/06/08 02:43:24;;;;;;;;;;;;;;;;;;141284;1244;22459;-78
2023/06/08 02:46:25;;;;;;;;;;;;;;;;;;140986;1244;22518;-78
2023/06/08 02:49:26;;;;;;;;;;;;;;;;;;141031;1244;22943;-78
2023/06/08 02:52:27;;;;;;;;;;;;;;;;;;141353;1244;22539;-79
2023/06/08 02:55:34;;;;;;;;;;;;;;;;;;141043;1244;22524;-77
2023/06/08 02:58:36;;;;;;;;;;;;;;;;;;140992;1244;22528;-78
2023/06/08 03:01:37;;;;;;;;;;;;;;;;;;141194;1244;22445;-79
2023/06/08 03:04:43;;;;;;;;;;;;;;;;;;141129;1240;22512;-79
2023/06/08 03:07:46;;;;;;;;;;;;;;;;;;141015;1244;22487;-79
2023/06/08 03:10:47;;;;;;;;;;;;;;;;;;141101;1244;23019;-79
2023/06/08 03:13:48;;;;;;;;;;;;;;;;;;141275;1240;22519;-79
2023/06/08 03:16:49;;;;;;;;;;;;;;;;;;141049;1240;23008;-80
2023/06/08 03:19:50;;;;;;;;;;;;;;;;;;141004;1244;22523;-78
2023/06/08 03:22:52;;;;;;;;;;;;;;;;;;141344;1244;22272;-80
2023/06/08 03:25:53;;;;;;;;;;;;;;;;;;141024;1244;22475;-79
2023/06/08 03:28:54;;;;;;;;;;;;;;;;;;140994;1244;22544;-80
2023/06/08 03:31:55;;;;;;;;;;;;;;;;;;141223;1244;22511;-78
2023/06/08 03:34:56;;;;;;;;;;;;;;;;;;141014;1244;22514;-79
2023/06/08 03:37:57;;;;;;;;;;;;;;;;;;141065;1244;22480;-79
2023/06/08 03:40:58;;;;;;;;;;;;;;;;;;141134;1244;25017;-79
2023/06/08 03:43:59;;;;;;;;;;;;;;;;;;141144;1244;22801;-79
2023/06/08 03:47:00;;;;;;;;;;;;;;;;;;140989;1244;22515;-79
2023/06/08 03:50:02;;;;;;;;;;;;;;;;;;141064;1244;22506;-79
2023/06/08 03:53:04;;;;;;;;;;;;;;;;;;141310;1244;22481;-79
2023/06/08 03:56:05;;;;;;;;;;;;;;;;;;141100;1244;25168;-79
2023/06/08 03:59:06;;;;;;;;;;;;;;;;;;141041;1244;22508;-79
2023/06/08 04:02:07;;;;;;;;;;;;;;;;;;141378;1244;22891;-79
2023/06/08 04:05:09;;;;;;;;;;;;;;;;;;141132;1244;22564;-78
2023/06/08 04:08:12;;;;;;;;;;;;;;;;;;141079;1244;22510;-78
2023/06/08 04:11:13;;;;;;;;;;;;;;;;;;141501;1244;22450;-79
2023/06/08 04:14:16;;;;;;;;;;;;;;;;;;141472;1244;22430;-78
2023/06/08 04:17:17;;;;;;;;;;;;;;;;;;141478;1244;22250;-78
2023/06/08 04:20:18;;;;;;;;;;;;;;;;;;141312;1244;25606;-79
2023/06/08 04:23:19;;;;;;;;;;;;;;;;;;141395;1244;22520;-79
2023/06/08 04:26:21;;;;;;;;;;;;;;;;;;141229;1244;22472;-78
2023/06/08 04:29:22;;;;;;;;;;;;;;;;;;141400;1244;22294;-78
2023/06/08 04:32:23;;;;;;;;;;;;;;;;;;141414;1244;22273;-78
2023/06/08 04:35:24;;;;;;;;;;;;;;;;;;141308;1244;22479;-80
2023/06/08 04:38:27;;;;;;;;;;;;;;;;;;141428;1244;22312;-79
2023/06/08 04:41:31;;;;;;;;;;;;;;;;;;141415;1244;22939;-80
2023/06/08 04:44:33;;;;;;;;;;;;;;;;;;141140;1244;22515;-80
2023/06/08 04:47:35;;;;;;;;;;;;;;;;;;141108;1244;22415;-79
2023/06/08 04:50:38;;;;;;;;;;;;;;;;;;141191;1244;22483;-80
2023/06/08 04:53:42;;;;;;;;;;;;;;;;;;141336;1244;22470;-82
2023/06/08 04:56:45;;;;;;;;;;;;;;;;;;141260;1244;22834;-82
2023/06/08 04:59:46;;;;;;;;;;;;;;;;;;141154;1244;22509;-81
2023/06/08 05:02:47;;;;;;;;;;;;;;;;;;141367;1240;22484;-81
2023/06/08 05:05:48;;;;;;;;;;;;;;;;;;140878;1244;190007;-82
2023/06/08 05:08:49;;;;;;;;;;;;;;;;;;140970;1244;22512;-81
2023/06/08 05:11:50;;;;;;;;;;;;;;;;;;141309;1244;22545;-84
2023/06/08 05:14:51;;;;;;;;;;;;;;;;;;141052;1244;22971;-85
2023/06/08 05:17:55;;;;;;;;;;;;;;;;;;141014;1244;22493;-84
2023/06/08 05:20:56;;;;;;;;;;;;;;;;;;141264;1244;22514;-83
2023/06/08 05:23:57;;;;;;;;;;;;;;;;;;141279;1240;22519;-83
2023/06/08 05:26:59;;;;;;;;;;;;;;;;;;141412;1244;22464;-84
2023/06/08 05:30:00;;;;;;;;;;;;;;;;;;141483;1244;22503;-83
2023/06/08 05:33:01;;;;;;;;;;;;;;;;;;141054;1244;22532;-84
2023/06/08 05:36:02;;;;;;;;;;;;;;;;;;141044;1244;22518;-84
2023/06/08 05:39:04;;;;;;;;;;;;;;;;;;141413;1244;22530;-83
2023/06/08 05:42:06;;;;;;;;;;;;;;;;;;141100;1244;22522;-83
2023/06/08 05:45:07;;;;;;;;;;;;;;;;;;141247;1244;22486;-83
2023/06/08 05:48:10;;;;;;;;;;;;;;;;;;141162;1244;22491;-83
2023/06/08 05:51:11;;;;;;;;;;;;;;;;;;141389;1243;22296;-83
2023/06/08 05:54:13;;;;;;;;;;;;;;;;;;141087;1244;22480;-83
2023/06/08 05:57:14;;;;;;;;;;;;;;;;;;141091;1237;22539;-83
2023/06/08 06:00:15;;;;;;;;;;;;;;;;;;140904;1244;22487;-84
2023/06/08 06:03:16;;;;;;;;;;;;;;;;;;141176;1244;22558;-84
2023/06/08 06:06:17;;;;;;;;;;;;;;;;;;141040;1244;22498;-83
2023/06/08 06:09:19;;;;;;;;;;;;;;;;;;140966;1244;22960;-83
2023/06/08 06:12:20;;;;;;;;;;;;;;;;;;141365;1244;22524;-83
2023/06/08 06:15:21;;;;;;;;;;;;;;;;;;141032;1244;22547;-84
2023/06/08 06:18:22;;;;;;;;;;;;;;;;;;141019;1244;22923;-84
2023/06/08 06:21:23;;;;;;;;;;;;;;;;;;141337;1244;22962;-84
2023/06/08 06:24:24;;;;;;;;;;;;;;;;;;141037;1244;22998;-82
2023/06/08 06:27:25;;;;;;;;;;;;;;;;;;141104;1244;22473;-83
2023/06/08 06:30:26;;;;;;;;;;;;;;;;;;141203;1244;22558;-83
2023/06/08 06:33:28;;;;;;;;;;;;;;;;;;141132;1244;22480;-83
2023/06/08 06:36:29;;;;;;;;;;;;;;;;;;141081;1244;22924;-83
2023/06/08 06:39:30;;;;;;;;;;;;;;;;;;140995;1244;24198;-81
2023/06/08 06:42:31;;;;;;;;;;;;;;;;;;141398;1244;22525;-82
2023/06/08 06:45:32;;;;;;;;;;;;;;;;;;141182;1244;23001;-83
2023/06/08 06:48:33;;;;;;;;;;;;;;;;;;141185;1244;22892;-83
2023/06/08 06:51:36;;;;;;;;;;;;;;;;;;141404;1244;22675;-83
2023/06/08 06:54:37;;;;;;;;;;;;;;;;;;140609;1244;22548;-84
2023/06/08 06:57:40;;;;;;;;;;;;;;;;;;141208;1244;22491;-83
2023/06/08 07:00:41;;;;;;;;;;;;;;;;;;141413;1244;22330;-82
2023/06/08 07:03:43;;;;;;;;;;;;;;;;;;141081;1244;22507;-82
2023/06/08 07:06:47;;;;;;;;;;;;;;;;;;141027;1244;22834;-83
2023/06/08 07:09:48;;;;;;;;;;;;;;;;;;141115;1244;22484;-83
2023/06/08 07:12:50;;;;;;;;;;;;;;;;;;141323;1244;22902;-83
2023/06/08 07:15:51;;;;;;;;;;;;;;;;;;141089;1244;22552;-83
2023/06/08 07:18:52;;;;;;;;;;;;;;;;;;140880;1244;23057;-82
2023/06/08 07:21:54;;;;;;;;;;;;;;;;;;141446;1244;22389;-84
2023/06/08 07:24:55;;;;;;;;;;;;;;;;;;140982;1244;22468;-84
2023/06/08 07:27:56;;;;;;;;;;;;;;;;;;140928;1244;22976;-83
2023/06/08 07:30:57;;;;;;;;;;;;;;;;;;141295;1244;22489;-84
2023/06/08 07:33:58;;;;;;;;;;;;;;;;;;141046;1244;22488;-84
2023/06/08 07:37:00;;;;;;;;;;;;;;;;;;140976;1240;22791;-83
2023/06/08 07:40:04;;;;;;;;;;;;;;;;;;141120;1244;22494;-84
2023/06/08 07:43:07;;;;;;;;;;;;;;;;;;141223;1244;22480;-84
2023/06/08 07:46:08;;;;;;;;;;;;;;;;;;140944;1244;22465;-84
2023/06/08 07:49:09;;;;;;;;;;;;;;;;;;141086;1244;22500;-84
2023/06/08 07:52:10;;;;;;;;;;;;;;;;;;141292;1244;22493;-86
2023/06/08 07:55:11;;;;;;;;;;;;;;;;;;141163;1244;22475;-84
2023/06/08 07:58:12;;;;;;;;;;;;;;;;;;141144;1244;22550;-84
2023/06/08 08:01:13;;;;;;;;;;;;;;;;;;141462;1244;22561;-86
2023/06/08 08:04:15;;;;;;;;;;;;;;;;;;140741;1244;22531;-85
2023/06/08 08:07:16;;;;;;;;;;;;;;;;;;140863;1244;22542;-84
2023/06/08 08:10:17;;;;;;;;;;;;;;;;;;141408;1244;22767;-85
2023/06/08 08:13:18;;;;;;;;;;;;;;;;;;141002;1244;22504;-85
2023/06/08 08:16:19;;;;;;;;;;;;;;;;;;140880;1240;23177;-83
2023/06/08 08:19:20;;;;;;;;;;;;;;;;;;141370;1244;22577;-84
2023/06/08 08:22:22;;;;;;;;;;;;;;;;;;140879;1244;22519;-84
2023/06/08 08:25:23;;;;;;;;;;;;;;;;;;140852;1244;22880;-85
2023/06/08 08:28:24;;;;;;;;;;;;;;;;;;141061;1244;22598;-85
2023/06/08 08:31:25;;;;;;;;;;;;;;;;;;140652;1244;22826;-85
2023/06/08 08:34:26;;;;;;;;;;;;;;;;;;140770;1244;22497;-85
2023/06/08 08:37:27;;;;;;;;;;;;;;;;;;141119;1244;22488;-85
2023/06/08 08:40:31;;;;;;;;;;;;;;;;;;140939;1244;22498;-85
2023/06/08 08:43:32;;;;;;;;;;;;;;;;;;140818;1244;22509;-85
2023/06/08 08:46:34;;;;;;;;;;;;;;;;;;140825;1244;22486;-84
2023/06/08 08:49:40;;;;;;;;;;;;;;;;;;141152;1244;22502;-85
2023/06/08 08:52:41;;;;;;;;;;;;;;;;;;140824;1244;22812;-83
2023/06/08 08:55:47;;;;;;;;;;;;;;;;;;140841;1244;22836;-85
2023/06/08 08:58:50;;;;;;;;;;;;;;;;;;141134;1244;22500;-86
2023/06/08 09:01:51;;;;;;;;;;;;;;;;;;140812;1241;22531;-85
2023/06/08 09:04:52;;;;;;;;;;;;;;;;;;140792;1244;22515;-85
2023/06/08 09:07:54;;;;;;;;;;;;;;;;;;141127;1244;22506;-85
2023/06/08 09:10:55;;;;;;;;;;;;;;;;;;140876;1244;22537;-84
2023/06/08 09:13:56;;;;;;;;;;;;;;;;;;140845;1244;23055;-82
2023/06/08 09:16:58;;;;;;;;;;;;;;;;;;141037;1244;22513;-85
2023/06/08 09:20:00;;;;;;;;;;;;;;;;;;141236;1244;22470;-86
2023/06/08 09:23:03;;;;;;;;;;;;;;;;;;140921;1244;22479;-84
2023/06/08 09:26:04;;;;;;;;;;;;;;;;;;140852;1244;22478;-85
2023/06/08 09:29:06;;;;;;;;;;;;;;;;;;141225;1244;22531;-85
2023/06/08 09:32:08;;;;;;;;;;;;;;;;;;140800;1244;22673;-84
2023/06/08 09:35:09;;;;;;;;;;;;;;;;;;140831;1244;22422;-83
2023/06/08 09:38:16;;;;;;;;;;;;;;;;;;141248;1244;22413;-84
2023/06/08 09:41:19;;;;;;;;;;;;;;;;;;140919;1244;22507;-84
2023/06/08 09:44:21;;;;;;;;;;;;;;;;;;140945;1244;22489;-84
2023/06/08 09:47:22;;;;;;;;;;;;;;;;;;141310;1244;22505;-83
2023/06/08 09:50:23;;;;;;;;;;;;;;;;;;140944;1244;22540;-84
2023/06/08 09:53:25;;;;;;;;;;;;;;;;;;140837;1244;22523;-83
2023/06/08 09:56:26;;;;;;;;;;;;;;;;;;141024;1244;22502;-82
2023/06/08 09:59:27;;;;;;;;;;;;;;;;;;141161;1244;22471;-83
2023/06/08 10:02:29;;;;;;;;;;;;;;;;;;140993;1244;22496;-84
2023/06/08 10:05:33;;;;;;;;;;;;;;;;;;140929;1244;22456;-83
2023/06/08 10:08:34;;;;;;;;;;;;;;;;;;141445;1240;24180;-84
2023/06/08 10:11:35;;;;;;;;;;;;;;;;;;140964;1244;22494;-84
2023/06/08 10:14:36;;;;;;;;;;;;;;;;;;140909;1244;22494;-83
2023/06/08 10:17:37;;;;;;;;;;;;;;;;;;141038;1244;22493;-85
2023/06/08 10:20:38;;;;;;;;;;;;;;;;;;141076;1244;22516;-85
2023/06/08 10:23:39;;;;;;;;;;;;;;;;;;140787;1244;22489;-85
2023/06/08 10:26:40;;;;;;;;;;;;;;;;;;140784;1244;22517;-85
2023/06/08 10:29:42;;;;;;;;;;;;;;;;;;141087;1244;22593;-85
2023/06/08 10:32:43;;;;;;;;;;;;;;;;;;140773;1244;22934;-85
2023/06/08 10:35:46;;;;;;;;;;;;;;;;;;140704;1240;22588;-83
2023/06/08 10:38:47;;;;;;;;;;;;;;;;;;141341;1244;22491;-84
2023/06/08 10:41:48;;;;;;;;;;;;;;;;;;140785;1244;22509;-84
2023/06/08 10:44:49;;;;;;;;;;;;;;;;;;140853;1244;22480;-85
2023/06/08 10:47:50;;;;;;;;;;;;;;;;;;141182;1244;22645;-86
2023/06/08 10:50:52;;;;;;;;;;;;;;;;;;140868;1244;22498;-84
2023/06/08 10:53:53;;;;;;;;;;;;;;;;;;140793;1244;22504;-85
2023/06/08 10:56:54;;;;;;;;;;;;;;;;;;140722;1242;22538;-84
2023/06/08 10:59:55;;;;;;;;;;;;;;;;;;141087;1244;22479;-85
2023/06/08 11:02:56;;;;;;;;;;;;;;;;;;140789;1244;22520;-84
2023/06/08 11:05:57;;;;;;;;;;;;;;;;;;140773;1241;22523;-83
2023/06/08 11:08:58;;;;;;;;;;;;;;;;;;141315;1244;22555;-86
2023/06/08 11:11:59;;;;;;;;;;;;;;;;;;140745;1244;22520;-85
2023/06/08 11:15:00;;;;;;;;;;;;;;;;;;140806;1244;22895;-85
2023/06/08 11:18:02;;;;;;;;;;;;;;;;;;141208;1244;24201;-85
2023/06/08 11:21:03;;;;;;;;;;;;;;;;;;140788;1244;22482;-85
2023/06/08 11:24:04;;;;;;;;;;;;;;;;;;140812;1244;22475;-85
2023/06/08 11:27:06;;;;;;;;;;;;;;;;;;141118;1244;22483;-85
2023/06/08 11:30:07;;;;;;;;;;;;;;;;;;141002;1244;22542;-86
2023/06/08 11:33:09;;;;;;;;;;;;;;;;;;140818;1244;22500;-85
2023/06/08 11:36:10;;;;;;;;;;;;;;;;;;140940;1244;24878;-84
2023/06/08 11:39:11;;;;;;;;;;;;;;;;;;141256;1244;22558;-85
2023/06/08 11:42:12;;;;;;;;;;;;;;;;;;140739;1244;22496;-86
2023/06/08 11:45:13;;;;;;;;;;;;;;;;;;140812;1244;24204;-85
2023/06/08 11:48:15;;;;;;;;;;;;;;;;;;141296;1244;22494;-82
2023/06/08 11:51:17;;;;;;;;;;;;;;;;;;140873;1244;22810;-84
2023/06/08 11:54:18;;;;;;;;;;;;;;;;;;140744;1244;22526;-84
2023/06/08 11:57:19;;;;;;;;;;;;;;;;;;141322;1242;23069;-86
2023/06/08 12:00:23;;;;;;;;;;;;;;;;;;140761;1244;22891;-85
2023/06/08 12:03:26;;;;;;;;;;;;;;;;;;140769;1244;22500;-86
2023/06/08 12:06:28;;;;;;;;;;;;;;;;;;141074;1244;22542;-84
2023/06/08 12:09:29;;;;;;;;;;;;;;;;;;140461;1244;22524;-85
2023/06/08 12:12:30;;;;;;;;;;;;;;;;;;140792;1241;22561;-85
2023/06/08 12:15:31;;;;;;;;;;;;;;;;;;141198;1244;22504;-85
2023/06/08 12:18:32;;;;;;;;;;;;;;;;;;140725;1244;22485;-85
2023/06/08 12:21:33;;;;;;;;;;;;;;;;;;140604;1244;22522;-83
2023/06/08 12:24:35;;;;;;;;;;;;;;;;;;141265;1244;22535;-86
2023/06/08 12:27:39;;;;;;;;;;;;;;;;;;140721;1244;22533;-84
2023/06/08 12:30:41;;;;;;;;;;;;;;;;;;140790;1244;22552;-85
2023/06/08 12:33:42;;;;;;;;;;;;;;;;;;141259;1244;22859;-85
2023/06/08 12:36:43;;;;;;;;;;;;;;;;;;140726;1244;22526;-84
2023/06/08 12:39:44;;;;;;;;;;;;;;;;;;140553;1244;25906;-85
2023/06/08 12:42:49;;;;;;;;;;;;;;;;;;141233;1244;22528;-86
2023/06/08 12:45:50;;;;;;;;;;;;;;;;;;140708;1241;22480;-84
2023/06/08 12:48:53;;;;;;;;;;;;;;;;;;140862;1244;22544;-85
2023/06/08 12:51:54;;;;;;;;;;;;;;;;;;141261;1244;22492;-86
2023/06/08 12:54:55;;;;;;;;;;;;;;;;;;140647;1244;22507;-86
2023/06/08 12:57:56;;;;;;;;;;;;;;;;;;140822;1244;22512;-86
2023/06/08 13:00:57;;;;;;;;;;;;;;;;;;141225;1244;22474;-85
2023/06/08 13:04:03;;;;;;;;;;;;;;;;;;140846;1244;22484;-86
2023/06/08 13:07:05;;;;;;;;;;;;;;;;;;140959;1244;23015;-85
2023/06/08 13:10:06;;;;;;;;;;;;;;;;;;141156;1244;22514;-85
2023/06/08 13:13:07;;;;;;;;;;;;;;;;;;140898;1244;22522;-85
2023/06/08 13:16:09;;;;;;;;;;;;;;;;;;140759;1244;22569;-85
2023/06/08 13:19:10;;;;;;;;;;;;;;;;;;141164;1244;22506;-85
2023/06/08 13:22:12;;;;;;;;;;;;;;;;;;140382;1244;22530;-85
2023/06/08 13:25:16;;;;;;;;;;;;;;;;;;140420;1244;22518;-84
2023/06/08 13:28:19;;;;;;;;;;;;;;;;;;141225;1244;22546;-85
2023/06/08 13:31:20;;;;;;;;;;;;;;;;;;140757;1244;22483;-83
2023/06/08 13:34:22;;;;;;;;;;;;;;;;;;140737;1244;22993;-85
2023/06/08 13:37:23;;;;;;;;;;;;;;;;;;141079;1244;22691;-84
2023/06/08 13:40:24;;;;;;;;;;;;;;;;;;140891;1244;22536;-84
2023/06/08 13:43:26;;;;;;;;;;;;;;;;;;140751;1244;22498;-86
2023/06/08 13:46:27;;;;;;;;;;;;;;;;;;140976;1244;25343;-86
2023/06/08 13:49:29;;;;;;;;;;;;;;;;;;141067;1244;22845;-87
2023/06/08 13:52:30;;;;;;;;;;;;;;;;;;140747;1244;22859;-85
2023/06/08 13:55:31;;;;;;;;;;;;;;;;;;140797;1244;22530;-87
2023/06/08 13:58:33;;;;;;;;;;;;;;;;;;141147;1244;22509;-86
2023/06/08 14:01:34;;;;;;;;;;;;;;;;;;140718;1244;22620;-86
2023/06/08 14:04:35;;;;;;;;;;;;;;;;;;140656;1244;22521;-84
2023/06/08 14:07:36;;;;;;;;;;;;;;;;;;141182;1244;22480;-86
2023/06/08 14:10:37;;;;;;;;;;;;;;;;;;140680;1244;22486;-85
2023/06/08 14:13:38;;;;;;;;;;;;;;;;;;140739;1244;22520;-84
2023/06/08 14:16:39;;;;;;;;;;;;;;;;;;141182;1244;22475;-86
2023/06/08 14:19:40;;;;;;;;;;;;;;;;;;140732;1244;22490;-85
2023/06/08 14:22:41;;;;;;;;;;;;;;;;;;140662;1244;22492;-86
2023/06/08 14:25:42;;;;;;;;;;;;;;;;;;141127;1244;22482;-84
2023/06/08 14:28:43;;;;;;;;;;;;;;;;;;140955;1244;22547;-86
2023/06/08 14:31:45;;;;;;;;;;;;;;;;;;140781;1244;22483;-86
2023/06/08 14:34:46;;;;;;;;;;;;;;;;;;141271;1244;22498;-86
2023/06/08 14:37:47;;;;;;;;;;;;;;;;;;141355;1244;22523;-85
2023/06/08 14:40:48;;;;;;;;;;;;;;;;;;140621;1244;22523;-85
2023/06/08 14:43:51;;;;;;;;;;;;;;;;;;141615;1244;22526;-84
2023/06/08 14:46:52;;;;;;;;;;;;;;;;;;141119;1243;22470;-86
2023/06/08 14:49:53;;;;;;;;;;;;;;;;;;140546;1244;22535;-86
2023/06/08 14:52:57;;;;;;;;;;;;;;;;;;141179;1244;22533;-83
2023/06/08 14:55:58;;;;;;;;;;;;;;;;;;140827;1244;22481;-84
2023/06/08 14:58:59;;;;;;;;;;;;;;;;;;140821;1244;22473;-83
2023/06/08 15:02:01;;;;;;;;;;;;;;;;;;141220;1244;22529;-85
2023/06/08 15:05:03;;;;;;;;;;;;;;;;;;140810;1244;22517;-84
2023/06/08 15:08:05;;;;;;;;;;;;;;;;;;140856;1237;22489;-84
2023/06/08 15:11:06;;;;;;;;;;;;;;;;;;141056;1244;22495;-83
2023/06/08 15:14:07;;;;;;;;;;;;;;;;;;141028;1244;22620;-85
2023/06/08 15:17:08;;;;;;;;;;;;;;;;;;140709;1244;22483;-86
2023/06/08 15:20:09;;;;;;;;;;;;;;;;;;140670;1244;22539;-82
2023/06/08 15:23:12;;;;;;;;;;;;;;;;;;141250;1244;22484;-85
2023/06/08 15:26:13;;;;;;;;;;;;;;;;;;140770;1244;22623;-84
2023/06/08 15:29:14;;;;;;;;;;;;;;;;;;140699;1244;22554;-85
2023/06/08 15:32:17;;;;;;;;;;;;;;;;;;141242;1244;22847;-85
2023/06/08 15:35:18;;;;;;;;;;;;;;;;;;140694;1244;22483;-84
2023/06/08 15:38:19;;;;;;;;;;;;;;;;;;140701;1244;22656;-84
2023/06/08 15:41:20;;;;;;;;;;;;;;;;;;141006;1244;22496;-85
2023/06/08 15:44:21;;;;;;;;;;;;;;;;;;140950;1244;22481;-88
2023/06/08 15:47:22;;;;;;;;;;;;;;;;;;140609;1244;22520;-85
2023/06/08 15:50:23;;;;;;;;;;;;;;;;;;140924;1244;22498;-86
2023/06/08 15:53:24;;;;;;;;;;;;;;;;;;141097;1244;22573;-85
2023/06/08 15:56:26;;;;;;;;;;;;;;;;;;141391;1244;22758;-86
2023/06/08 15:59:27;;;;;;;;;;;;;;;;;;141376;1244;22674;-85
2023/06/08 16:02:28;;;;;;;;;;;;;;;;;;141408;1244;22281;-86
2023/06/08 16:05:29;;;;;;;;;;;;;;;;;;141405;1244;22252;-86
2023/06/08 16:08:30;;;;;;;;;;;;;;;;;;141372;1244;22189;-85
2023/06/08 16:11:31;;;;;;;;;;;;;;;;;;141390;1244;22204;-84
2023/06/08 16:14:32;;;;;;;;;;;;;;;;;;141357;1244;22369;-84
2023/06/08 16:17:33;;;;;;;;;;;;;;;;;;141368;1244;22595;-84
2023/06/08 16:20:35;;;;;;;;;;;;;;;;;;141381;1244;22253;-84
2023/06/08 16:23:36;;;;;;;;;;;;;;;;;;141384;1244;22218;-84
2023/06/08 16:26:37;;;;;;;;;;;;;;;;;;141408;1244;22659;-84
2023/06/08 16:29:38;;;;;;;;;;;;;;;;;;141389;1244;22536;-84
2023/06/08 16:32:39;;;;;;;;;;;;;;;;;;141412;1244;22805;-84
2023/06/08 16:35:40;;;;;;;;;;;;;;;;;;141398;1244;22424;-83
2023/06/08 16:38:42;;;;;;;;;;;;;;;;;;141376;1244;22625;-83
2023/06/08 16:41:44;;;;;;;;;;;;;;;;;;141348;1244;22248;-83
2023/06/08 16:44:45;;;;;;;;;;;;;;;;;;141379;1244;22377;-84
2023/06/08 16:47:46;;;;;;;;;;;;;;;;;;141384;1244;22796;-84
2023/06/08 16:50:48;;;;;;;;;;;;;;;;;;141407;1244;22252;-85
2023/06/08 16:53:49;;;;;;;;;;;;;;;;;;141399;1244;22185;-85
2023/06/08 16:56:50;;;;;;;;;;;;;;;;;;141384;1244;22161;-87
2023/06/08 16:59:51;;;;;;;;;;;;;;;;;;141397;1244;22271;-86
2023/06/08 17:02:53;;;;;;;;;;;;;;;;;;141340;1244;22552;-85
2023/06/08 17:05:54;;;;;;;;;;;;;;;;;;141085;1244;268121;-86
2023/06/08 17:08:55;;;;;;;;;;;;;;;;;;141362;1244;22228;-85
2023/06/08 17:11:58;;;;;;;;;;;;;;;;;;141372;1244;22264;-84
2023/06/08 17:15:01;;;;;;;;;;;;;;;;;;141321;1244;22350;-84
2023/06/08 17:18:02;;;;;;;;;;;;;;;;;;141371;1244;22279;-83
2023/06/08 17:21:07;;;;;;;;;;;;;;;;;;141359;1244;22268;-84
2023/06/08 17:24:08;;;;;;;;;;;;;;;;;;141329;1244;22275;-84
2023/06/08 17:27:09;;;;;;;;;;;;;;;;;;141310;1244;22176;-84
2023/06/08 17:30:10;;;;;;;;;;;;;;;;;;141359;1244;22334;-84
2023/06/08 17:33:11;;;;;;;;;;;;;;;;;;141375;1244;22253;-84
2023/06/08 17:36:12;;;;;;;;;;;;;;;;;;141415;1244;22132;-85
2023/06/08 17:39:16;;;;;;;;;;;;;;;;;;141402;1244;22169;-84
2023/06/08 17:42:17;;;;;;;;;;;;;;;;;;141390;1244;22155;-85
2023/06/08 17:45:18;;;;;;;;;;;;;;;;;;141392;1244;22318;-84
2023/06/08 17:48:19;;;;;;;;;;;;;;;;;;141444;1244;22238;-84
2023/06/08 17:51:20;;;;;;;;;;;;;;;;;;141435;1244;22194;-85
2023/06/08 17:54:21;;;;;;;;;;;;;;;;;;141433;1244;22261;-84
2023/06/08 17:57:22;;;;;;;;;;;;;;;;;;141402;1244;22310;-84
2023/06/08 18:00:23;;;;;;;;;;;;;;;;;;141401;1244;22261;-84
2023/06/08 18:03:24;;;;;;;;;;;;;;;;;;141413;1244;22234;-84
2023/06/08 18:06:25;;;;;;;;;;;;;;;;;;141392;1244;22274;-83
2023/06/08 18:09:27;;;;;;;;;;;;;;;;;;141413;1244;22171;-85
2023/06/08 18:12:28;;;;;;;;;;;;;;;;;;141404;1244;22176;-84
2023/06/08 18:15:29;;;;;;;;;;;;;;;;;;141385;1244;22351;-84
2023/06/08 18:18:30;;;;;;;;;;;;;;;;;;141251;1244;22338;-84
2023/06/08 18:21:31;;;;;;;;;;;;;;;;;;141392;1244;22250;-82
2023/06/08 18:24:32;;;;;;;;;;;;;;;;;;141357;1244;22278;-82
2023/06/08 18:27:35;;;;;;;;;;;;;;;;;;141401;1244;22255;-84
2023/06/08 18:30:36;;;;;;;;;;;;;;;;;;141399;1244;22387;-84
2023/06/08 18:33:37;;;;;;;;;;;;;;;;;;141387;1244;22148;-84
2023/06/08 18:36:38;;;;;;;;;;;;;;;;;;141418;1244;22549;-84
2023/06/08 18:39:42;;;;;;;;;;;;;;;;;;141377;1244;22241;-84
2023/06/08 18:42:44;;;;;;;;;;;;;;;;;;141372;1244;22330;-84
2023/06/08 18:45:45;;;;;;;;;;;;;;;;;;141384;1244;22342;-83
2023/06/08 18:48:46;;;;;;;;;;;;;;;;;;141400;1244;22208;-84
2023/06/08 18:51:47;;;;;;;;;;;;;;;;;;141384;1244;22854;-84
2023/06/08 18:54:48;;;;;;;;;;;;;;;;;;141260;1244;22286;-84
2023/06/08 18:57:49;;;;;;;;;;;;;;;;;;141402;1244;22251;-80
2023/06/08 19:00:50;;;;;;;;;;;;;;;;;;141412;1244;22253;-81
2023/06/08 19:03:52;;;;;;;;;;;;;;;;;;141442;1244;22388;-81
2023/06/08 19:06:53;;;;;;;;;;;;;;;;;;141454;1244;22257;-81
2023/06/08 19:09:54;;;;;;;;;;;;;;;;;;141449;1244;22266;-81
2023/06/08 19:12:55;;;;;;;;;;;;;;;;;;141449;1244;22265;-81
2023/06/08 19:15:56;;;;;;;;;;;;;;;;;;141446;1244;22417;-81
2023/06/08 19:19:00;;;;;;;;;;;;;;;;;;141439;1244;22227;-81
2023/06/08 19:22:02;;;;;;;;;;;;;;;;;;141433;1244;22172;-81
2023/06/08 19:25:03;;;;;;;;;;;;;;;;;;141451;1244;22279;-81
2023/06/08 19:28:04;;;;;;;;;;;;;;;;;;141448;1244;22246;-81
2023/06/08 19:31:05;;;;;;;;;;;;;;;;;;141459;1244;22064;-81
2023/06/08 19:34:06;;;;;;;;;;;;;;;;;;141438;1244;22244;-81
2023/06/08 19:37:07;;;;;;;;;;;;;;;;;;141467;1244;22617;-82
2023/06/08 19:40:10;;;;;;;;;;;;;;;;;;141450;1244;22247;-80
2023/06/08 19:43:11;;;;;;;;;;;;;;;;;;141491;1244;22220;-81
2023/06/08 19:46:12;;;;;;;;;;;;;;;;;;141651;1244;22381;-81
2023/06/08 19:49:13;;;;;;;;;;;;;;;;;;141663;1244;22247;-80
2023/06/08 19:52:14;;;;;;;;;;;;;;;;;;141690;1244;22263;-81
2023/06/08 19:55:16;;;;;;;;;;;;;;;;;;141642;1244;22719;-82
2023/06/08 19:58:17;;;;;;;;;;;;;;;;;;141632;1244;22128;-82
2023/06/08 20:01:18;;;;;;;;;;;;;;;;;;141651;1244;22145;-81
2023/06/08 20:04:19;;;;;;;;;;;;;;;;;;141662;1244;22272;-81
2023/06/08 20:07:21;;;;;;;;;;;;;;;;;;141624;1244;22247;-81
2023/06/08 20:10:22;;;;;;;;;;;;;;;;;;141574;1244;22167;-82
2023/06/08 20:13:23;;;;;;;;;;;;;;;;;;141607;1244;22149;-81
2023/06/08 20:16:25;;;;;;;;;;;;;;;;;;141415;1244;22366;-82